createdAt,value
2023-01-13T00:01:26.511Z,79.36
2023-01-13T00:03:53.564Z,79.20
2023-01-13T00:06:23.179Z,79.96
2023-01-13T00:08:51.152Z,79.48
2023-01-13T00:11:19.211Z,79.40
2023-01-13T00:13:46.851Z,80.70
2023-01-13T00:16:16.548Z,80.11
2023-01-13T00:18:44.295Z,78.15
2023-01-13T00:21:13.230Z,78.67
2023-01-13T00:23:40.703Z,78.30
2023-01-13T00:26:10.935Z,79.81
2023-01-13T00:28:38.022Z,79.65
2023-01-13T00:31:16.953Z,78.21
2023-01-13T00:33:44.403Z,79.52
2023-01-13T00:36:14.103Z,78.87
2023-01-13T00:38:42.998Z,79.91
2023-01-13T00:41:12.455Z,79.35
2023-01-13T00:43:40.054Z,80.10
2023-01-13T00:46:09.135Z,79.99
2023-01-13T00:48:36.701Z,79.00
2023-01-13T00:51:04.915Z,79.46
2023-01-13T00:53:37.554Z,80.37
2023-01-13T00:56:34.059Z,79.98
2023-01-13T00:59:05.912Z,79.78
2023-01-13T01:01:33.432Z,80.56
2023-01-13T01:04:00.398Z,80.70
2023-01-13T01:06:27.228Z,80.80
2023-01-13T01:08:55.233Z,80.12
2023-01-13T01:11:27.578Z,80.83
2023-01-13T01:13:55.817Z,81.28
2023-01-13T01:16:25.111Z,79.57
2023-01-13T01:18:53.274Z,80.88
2023-01-13T01:21:21.422Z,80.69
2023-01-13T01:23:48.449Z,80.76
2023-01-13T01:26:21.377Z,81.02
2023-01-13T01:28:48.405Z,81.39
2023-01-13T01:31:19.415Z,80.54
2023-01-13T01:33:47.813Z,80.18
2023-01-13T01:36:16.305Z,79.76
2023-01-13T01:38:43.395Z,79.17
2023-01-13T01:41:16.931Z,78.62
2023-01-13T01:44:03.083Z,79.52
2023-01-13T01:46:41.407Z,78.59
2023-01-13T01:49:23.825Z,78.40
2023-01-13T01:51:57.775Z,77.96
2023-01-13T01:54:29.322Z,78.41
2023-01-13T01:56:56.326Z,78.85
2023-01-13T01:59:27.353Z,78.75
2023-01-13T02:01:56.401Z,78.14
2023-01-13T02:04:26.627Z,79.84
2023-01-13T02:06:53.921Z,78.46
2023-01-13T02:09:20.860Z,78.05
2023-01-13T02:12:06.244Z,78.26
2023-01-13T02:14:34.279Z,77.74
2023-01-13T02:17:03.818Z,78.23
2023-01-13T02:19:55.635Z,78.14
2023-01-13T02:22:47.324Z,77.82
2023-01-13T02:25:35.912Z,77.07
2023-01-13T02:28:12.131Z,77.25
2023-01-13T02:31:04.343Z,77.56
2023-01-13T02:33:39.516Z,77.54
2023-01-13T02:36:13.674Z,77.76
2023-01-13T02:39:12.196Z,77.25
2023-01-13T02:42:03.775Z,77.57
2023-01-13T02:44:35.705Z,78.38
2023-01-13T02:47:08.574Z,78.51
2023-01-13T02:49:43.259Z,79.11
2023-01-13T02:52:17.536Z,78.88
2023-01-13T02:54:48.064Z,78.51
2023-01-13T02:57:17.534Z,78.66
2023-01-13T02:59:45.264Z,80.19
2023-01-13T03:02:15.605Z,80.47
2023-01-13T03:04:50.789Z,80.48
2023-01-13T03:07:53.533Z,80.92
2023-01-13T03:10:56.019Z,80.72
2023-01-13T03:13:50.994Z,80.86
2023-01-13T03:16:48.172Z,80.33
2023-01-13T03:19:31.123Z,79.88
2023-01-13T03:22:10.209Z,80.29
2023-01-13T03:24:37.926Z,79.79
2023-01-13T03:27:11.564Z,79.54
2023-01-13T03:29:59.027Z,78.91
2023-01-13T03:32:44.283Z,78.27
2023-01-13T03:35:23.310Z,78.51
2023-01-13T03:37:57.260Z,77.70
2023-01-13T03:40:27.843Z,76.36
2023-01-13T03:43:17.290Z,76.11
2023-01-13T03:45:46.142Z,76.04
2023-01-13T03:48:17.024Z,75.92
2023-01-13T03:50:56.457Z,77.18
2023-01-13T03:53:28.735Z,78.61
2023-01-13T03:56:08.089Z,77.80
2023-01-13T03:58:41.486Z,78.80
2023-01-13T04:01:22.252Z,77.99
2023-01-13T04:03:57.576Z,79.26
2023-01-13T04:06:49.009Z,79.10
2023-01-13T04:09:33.598Z,78.78
2023-01-13T04:12:08.547Z,78.44
2023-01-13T04:14:35.921Z,78.54
2023-01-13T04:17:02.762Z,78.62
2023-01-13T04:19:29.666Z,77.28
2023-01-13T04:21:56.729Z,78.53
2023-01-13T04:24:23.482Z,78.43
2023-01-13T04:26:50.662Z,78.01
2023-01-13T04:29:17.334Z,77.98
2023-01-13T04:31:44.227Z,77.84
2023-01-13T04:34:11.025Z,78.34
2023-01-13T04:36:37.825Z,78.33
2023-01-13T04:39:04.756Z,79.70
2023-01-13T04:41:54.024Z,79.59
2023-01-13T04:44:20.854Z,78.91
2023-01-13T04:46:47.569Z,76.80
2023-01-13T04:49:14.422Z,76.61
2023-01-13T04:51:41.200Z,75.39
2023-01-13T04:54:10.254Z,76.41
2023-01-13T04:56:37.376Z,75.51
2023-01-13T04:59:04.248Z,74.03
2023-01-13T05:01:31.196Z,75.32
2023-01-13T05:03:57.895Z,75.14
2023-01-13T05:06:24.654Z,75.25
2023-01-13T05:08:51.343Z,74.70
2023-01-13T05:11:36.513Z,75.44
2023-01-13T05:14:22.210Z,74.48
2023-01-13T05:17:00.635Z,75.88
2023-01-13T05:19:35.001Z,74.86
2023-01-13T05:22:21.451Z,75.46
2023-01-13T05:25:07.051Z,75.38
2023-01-13T05:27:33.811Z,76.40
2023-01-13T05:30:00.562Z,75.80
2023-01-13T05:32:30.223Z,75.29
2023-01-13T05:34:57.082Z,75.05
2023-01-13T05:37:24.687Z,75.49
2023-01-13T05:40:10.666Z,75.68
2023-01-13T05:42:56.037Z,74.96
2023-01-13T05:45:22.896Z,75.56
2023-01-13T05:47:50.113Z,75.01
2023-01-13T05:50:17.435Z,75.69
2023-01-13T05:52:44.715Z,76.57
2023-01-13T05:55:11.887Z,76.57
2023-01-13T05:57:38.645Z,76.65
2023-01-13T06:00:05.849Z,76.68
2023-01-13T06:02:38.492Z,76.28
2023-01-13T06:05:05.481Z,76.10
2023-01-13T06:07:32.436Z,74.98
2023-01-13T06:09:59.122Z,74.84
2023-01-13T06:12:25.985Z,76.07
2023-01-13T06:14:53.155Z,74.70
2023-01-13T06:17:19.939Z,75.33
2023-01-13T06:19:46.959Z,75.02
2023-01-13T06:22:31.173Z,76.20
2023-01-13T06:24:58.140Z,74.63
2023-01-13T06:27:24.784Z,73.85
2023-01-13T06:29:51.485Z,73.84
2023-01-13T06:32:21.171Z,74.09
2023-01-13T06:34:52.087Z,74.44
2023-01-13T06:37:21.672Z,73.64
2023-01-13T06:39:49.059Z,75.68
2023-01-13T06:42:35.003Z,74.59
2023-01-13T06:45:02.004Z,73.80
2023-01-13T06:47:28.727Z,74.71
2023-01-13T06:49:55.954Z,74.43
2023-01-13T06:52:23.596Z,74.63
2023-01-13T06:54:55.695Z,75.08
2023-01-13T06:57:23.031Z,76.09
2023-01-13T06:59:50.687Z,76.31
2023-01-13T07:02:18.255Z,75.84
2023-01-13T07:04:46.991Z,77.31
2023-01-13T07:07:14.770Z,78.89
2023-01-13T07:09:41.977Z,78.89
2023-01-13T07:12:09.530Z,78.35
2023-01-13T07:14:55.627Z,77.22
2023-01-13T07:17:25.643Z,78.51
2023-01-13T07:19:53.628Z,77.91
2023-01-13T07:22:20.987Z,77.44
2023-01-13T07:24:48.332Z,76.97
2023-01-13T07:27:15.759Z,79.29
2023-01-13T07:29:44.114Z,78.99
2023-01-13T07:32:11.435Z,78.81
2023-01-13T07:34:38.792Z,78.06
2023-01-13T07:37:05.966Z,79.81
2023-01-13T07:39:33.459Z,79.44
2023-01-13T07:42:19.081Z,79.41
2023-01-13T07:44:46.697Z,86.53
2023-01-13T07:47:14.037Z,81.36
2023-01-13T07:49:41.587Z,80.20
2023-01-13T07:52:09.342Z,81.29
2023-01-13T07:54:41.093Z,81.63
2023-01-13T07:57:09.315Z,80.44
2023-01-13T07:59:37.245Z,81.59
2023-01-13T08:02:04.965Z,81.20
2023-01-13T08:04:32.327Z,80.08
2023-01-13T08:06:59.471Z,80.47
2023-01-13T08:09:26.925Z,80.83
2023-01-13T08:12:16.098Z,80.87
2023-01-13T08:14:43.561Z,81.21
2023-01-13T08:17:10.698Z,80.77
2023-01-13T08:19:38.149Z,80.96
2023-01-13T08:22:05.417Z,81.33
2023-01-13T08:24:32.696Z,80.43
2023-01-13T08:27:00.152Z,80.35
2023-01-13T08:29:26.980Z,78.82
2023-01-13T08:31:54.601Z,78.80
2023-01-13T08:34:21.697Z,79.26
2023-01-13T08:36:52.509Z,77.97
2023-01-13T08:39:19.750Z,78.85
2023-01-13T08:41:56.502Z,77.94
2023-01-13T08:44:25.554Z,77.67
2023-01-13T08:46:52.744Z,77.36
2023-01-13T08:49:19.792Z,77.72
2023-01-13T08:51:46.608Z,76.99
2023-01-13T08:54:14.489Z,75.83
2023-01-13T08:56:42.606Z,76.95
2023-01-13T08:59:14.068Z,76.56
2023-01-13T09:01:41.686Z,76.92
2023-01-13T09:04:18.577Z,76.65
2023-01-13T09:06:46.608Z,75.76
2023-01-13T09:09:14.106Z,76.07
2023-01-13T09:12:02.445Z,75.45
2023-01-13T09:14:31.850Z,75.99
2023-01-13T09:17:00.008Z,75.76
2023-01-13T09:19:28.683Z,75.25
2023-01-13T09:21:56.909Z,76.98
2023-01-13T09:24:24.708Z,76.68
2023-01-13T09:26:52.209Z,75.81
2023-01-13T09:29:20.404Z,75.82
2023-01-13T09:31:48.390Z,76.90
2023-01-13T09:34:36.747Z,76.30
2023-01-13T09:37:06.128Z,74.46
2023-01-13T09:39:34.309Z,75.79
2023-01-13T09:42:38.701Z,75.56
2023-01-13T09:45:08.084Z,74.53
2023-01-13T09:48:13.434Z,75.77
2023-01-13T09:50:49.114Z,75.65
2023-01-13T09:53:51.736Z,75.86
2023-01-13T09:56:18.730Z,76.11
2023-01-13T09:58:46.388Z,75.88
2023-01-13T10:01:42.740Z,75.22
2023-01-13T10:04:12.829Z,76.57
2023-01-13T10:06:42.585Z,76.69
2023-01-13T10:09:38.950Z,75.96
2023-01-13T10:12:30.596Z,76.76
2023-01-13T10:14:58.035Z,76.05
2023-01-13T10:17:36.988Z,74.89
2023-01-13T10:20:20.975Z,74.15
2023-01-13T10:23:09.868Z,74.16
2023-01-13T10:26:05.022Z,75.69
2023-01-13T10:28:32.256Z,74.38
2023-01-13T10:30:59.959Z,73.59
2023-01-13T10:33:31.396Z,72.72
2023-01-13T10:36:14.223Z,74.25
2023-01-13T10:38:51.672Z,74.05
2023-01-13T10:41:24.397Z,73.43
2023-01-13T10:43:59.060Z,73.80
2023-01-13T10:46:26.574Z,73.68
2023-01-13T10:48:59.103Z,73.78
2023-01-13T10:51:38.340Z,73.14
2023-01-13T10:54:13.147Z,73.09
2023-01-13T10:56:42.116Z,73.21
2023-01-13T10:59:24.267Z,73.13
2023-01-13T11:02:23.520Z,74.32
2023-01-13T11:04:55.236Z,72.39
2023-01-13T11:07:28.909Z,73.14
2023-01-13T11:10:31.527Z,72.43
2023-01-13T11:13:08.763Z,73.27
2023-01-13T11:15:50.676Z,72.38
2023-01-13T11:18:41.014Z,72.98
2023-01-13T11:21:18.486Z,72.10
2023-01-13T11:23:54.069Z,73.42
2023-01-13T11:26:27.050Z,71.82
2023-01-13T11:29:01.385Z,73.40
2023-01-13T11:31:34.104Z,73.50
2023-01-13T11:34:08.932Z,73.06
2023-01-13T11:36:43.189Z,73.07
2023-01-13T11:39:58.729Z,73.17
2023-01-13T11:42:30.613Z,74.56
2023-01-13T11:45:07.607Z,74.10
2023-01-13T11:47:36.192Z,73.37
2023-01-13T11:50:05.028Z,74.23
2023-01-13T11:52:48.065Z,73.73
2023-01-13T11:55:27.131Z,73.23
2023-01-13T11:58:24.034Z,72.79
2023-01-13T12:01:14.111Z,72.23
2023-01-13T12:03:51.171Z,72.58
2023-01-13T12:06:39.500Z,72.39
2023-01-13T12:09:24.607Z,72.56
2023-01-13T12:12:19.595Z,72.20
2023-01-13T12:15:05.008Z,71.78
2023-01-13T12:17:32.655Z,72.36
2023-01-13T12:20:22.749Z,72.15
2023-01-13T12:22:53.349Z,72.15
2023-01-13T12:25:39.869Z,72.39
2023-01-13T12:28:28.968Z,71.40
2023-01-13T12:31:00.737Z,71.29
2023-01-13T12:33:46.852Z,71.36
2023-01-13T12:36:38.972Z,72.71
2023-01-13T12:39:17.311Z,72.48
2023-01-13T12:42:11.558Z,72.03
2023-01-13T12:45:18.558Z,71.78
2023-01-13T12:47:47.237Z,71.70
2023-01-13T12:50:26.131Z,71.52
2023-01-13T12:52:58.799Z,72.63
2023-01-13T12:55:28.167Z,72.06
2023-01-13T12:58:08.528Z,71.54
2023-01-13T13:00:41.947Z,72.77
2023-01-13T13:03:12.598Z,72.69
2023-01-13T13:05:49.196Z,72.99
2023-01-13T13:08:58.391Z,72.11
2023-01-13T13:11:51.390Z,73.01
2023-01-13T13:14:41.824Z,73.09
2023-01-13T13:17:39.420Z,72.95
2023-01-13T13:20:45.095Z,73.37
2023-01-13T13:23:33.869Z,72.36
2023-01-13T13:26:22.609Z,74.20
2023-01-13T13:29:14.229Z,73.75
2023-01-13T13:31:50.328Z,73.68
2023-01-13T13:34:32.889Z,74.37
2023-01-13T13:37:09.158Z,74.24
2023-01-13T13:40:00.890Z,74.14
2023-01-13T13:42:53.640Z,73.59
2023-01-13T13:45:42.538Z,74.22
2023-01-13T13:48:26.211Z,73.89
2023-01-13T13:50:58.205Z,74.53
2023-01-13T13:53:35.156Z,74.93
2023-01-13T13:56:05.072Z,75.65
2023-01-13T13:58:35.664Z,74.39
2023-01-13T14:01:06.994Z,75.00
2023-01-13T14:03:40.019Z,75.54
2023-01-13T14:06:08.233Z,74.62
2023-01-13T14:08:38.054Z,75.05
2023-01-13T14:11:30.060Z,75.25
2023-01-13T14:14:13.800Z,76.59
2023-01-13T14:16:42.676Z,75.54
2023-01-13T14:19:35.126Z,76.17
2023-01-13T14:22:04.717Z,75.58
2023-01-13T14:24:32.479Z,75.85
2023-01-13T14:27:11.653Z,76.29
2023-01-13T14:29:39.007Z,75.85
2023-01-13T14:32:07.427Z,75.26
2023-01-13T14:34:35.069Z,75.67
2023-01-13T14:37:03.278Z,75.50
2023-01-13T14:39:43.193Z,76.30
2023-01-13T14:42:14.456Z,76.43
2023-01-13T14:44:45.857Z,76.27
2023-01-13T14:47:20.699Z,76.78
2023-01-13T14:50:02.905Z,75.78
2023-01-13T14:52:35.465Z,75.42
2023-01-13T14:55:10.297Z,76.18
2023-01-13T14:57:39.739Z,76.16
2023-01-13T15:00:16.116Z,75.14
2023-01-13T15:02:58.917Z,75.13
2023-01-13T15:05:27.279Z,74.73
2023-01-13T15:08:14.211Z,74.97
2023-01-13T15:11:21.210Z,75.21
2023-01-13T15:13:57.056Z,75.14
2023-01-13T15:16:26.459Z,75.69
2023-01-13T15:18:56.381Z,75.24
2023-01-13T15:21:25.321Z,74.67
2023-01-13T15:23:52.961Z,75.29
2023-01-13T15:26:30.526Z,75.93
2023-01-13T15:28:59.202Z,75.98
2023-01-13T15:31:28.041Z,76.67
2023-01-13T15:33:55.162Z,76.02
2023-01-13T15:36:24.571Z,76.22
2023-01-13T15:38:52.257Z,75.68
2023-01-13T15:41:39.637Z,74.59
2023-01-13T15:44:25.712Z,75.53
2023-01-13T15:46:52.969Z,75.98
2023-01-13T15:49:36.765Z,74.71
2023-01-13T15:52:22.283Z,74.86
2023-01-13T15:54:50.220Z,74.74
2023-01-13T15:57:27.669Z,74.97
2023-01-13T16:00:08.225Z,74.28
2023-01-13T16:02:35.671Z,74.52
2023-01-13T16:05:03.202Z,74.05
2023-01-13T16:07:30.539Z,73.73
2023-01-13T16:09:58.064Z,74.38
2023-01-13T16:12:25.277Z,75.30
2023-01-13T16:14:52.426Z,76.60
2023-01-13T16:17:25.211Z,77.33
2023-01-13T16:19:52.751Z,78.40
2023-01-13T16:22:20.194Z,78.46
2023-01-13T16:24:48.326Z,78.65
2023-01-13T16:27:21.154Z,77.77
2023-01-13T16:29:49.323Z,77.95
2023-01-13T16:32:17.136Z,78.74
2023-01-13T16:34:44.522Z,79.68
2023-01-13T16:37:27.964Z,79.72
2023-01-13T16:39:55.656Z,80.76
2023-01-13T16:42:22.985Z,80.64
2023-01-13T16:44:51.116Z,80.97
2023-01-13T16:47:18.970Z,80.77
2023-01-13T16:49:46.760Z,81.93
2023-01-13T16:52:14.034Z,81.93
2023-01-13T16:54:41.451Z,80.54
2023-01-13T16:57:13.031Z,80.85
2023-01-13T16:59:44.637Z,81.65
2023-01-13T17:02:16.584Z,81.73
2023-01-13T17:04:44.553Z,80.73
2023-01-13T17:07:17.382Z,80.48
2023-01-13T17:09:44.876Z,80.33
2023-01-13T17:12:12.184Z,80.77
2023-01-13T17:14:40.407Z,80.26
2023-01-13T17:17:20.369Z,80.13
2023-01-13T17:19:47.769Z,79.58
2023-01-13T17:22:15.315Z,80.92
2023-01-13T17:24:43.150Z,80.97
2023-01-13T17:27:10.280Z,81.22
2023-01-13T17:29:38.190Z,81.86
2023-01-13T17:32:05.612Z,83.10
2023-01-13T17:34:33.391Z,83.93
2023-01-13T17:37:00.375Z,84.46
2023-01-13T17:39:27.950Z,82.30
2023-01-13T17:41:56.411Z,81.64
2023-01-13T17:44:24.005Z,80.71
2023-01-13T17:46:51.404Z,80.97
2023-01-13T17:49:21.569Z,79.80
2023-01-13T17:51:51.307Z,79.48
2023-01-13T17:54:18.767Z,79.57
2023-01-13T17:56:46.051Z,80.34
2023-01-13T17:59:14.565Z,79.45
2023-01-13T18:01:42.235Z,79.06
2023-01-13T18:04:20.425Z,78.47
2023-01-13T18:06:48.845Z,78.79
2023-01-13T18:09:17.204Z,79.09
2023-01-13T18:11:45.590Z,78.67
2023-01-13T18:14:13.943Z,79.35
2023-01-13T18:16:41.027Z,79.41
2023-01-13T18:19:28.578Z,80.44
2023-01-13T18:22:14.248Z,79.58
2023-01-13T18:25:00.424Z,79.29
2023-01-13T18:27:32.477Z,79.08
2023-01-13T18:30:01.060Z,78.99
2023-01-13T18:32:32.831Z,78.46
2023-01-13T18:35:07.229Z,78.22
2023-01-13T18:37:42.447Z,77.82
2023-01-13T18:40:12.527Z,77.72
2023-01-13T18:42:53.379Z,76.96
2023-01-13T18:45:29.126Z,77.68
2023-01-13T18:47:58.653Z,77.58
2023-01-13T18:50:26.789Z,77.52
2023-01-13T18:52:54.412Z,77.56
2023-01-13T18:55:21.639Z,78.18
2023-01-13T18:57:49.673Z,77.99
2023-01-13T19:00:19.422Z,79.22
2023-01-13T19:06:02.446Z,77.66
2023-01-13T19:08:29.743Z,76.91
2023-01-13T19:10:56.608Z,77.01
2023-01-13T19:13:23.549Z,75.80
2023-01-13T19:15:50.377Z,76.37
2023-01-13T19:18:17.212Z,77.21
2023-01-13T19:20:44.088Z,78.10
2023-01-13T19:23:11.809Z,78.03
2023-01-13T19:25:39.079Z,78.82
2023-01-13T19:28:05.867Z,79.10
2023-01-13T19:30:32.774Z,78.06
2023-01-13T19:32:59.634Z,78.25
2023-01-13T19:35:26.603Z,78.85
2023-01-13T19:37:54.004Z,80.37
2023-01-13T19:40:20.997Z,80.95
2023-01-13T19:43:06.059Z,80.92
2023-01-13T19:45:35.390Z,81.05
2023-01-13T19:48:04.554Z,80.81
2023-01-13T19:50:31.888Z,79.77
2023-01-13T19:52:58.694Z,79.05
2023-01-13T19:55:25.619Z,79.48
2023-01-13T19:57:52.298Z,80.37
2023-01-13T20:00:21.085Z,80.33
2023-01-13T20:02:49.611Z,80.19
2023-01-13T20:05:21.256Z,80.46
2023-01-13T20:07:49.652Z,80.79
2023-01-13T20:10:18.753Z,79.12
2023-01-13T20:12:45.957Z,78.72
2023-01-13T20:15:12.879Z,79.67
2023-01-13T20:17:41.654Z,78.82
2023-01-13T20:20:10.030Z,80.08
2023-01-13T20:22:38.248Z,80.39
2023-01-13T20:25:05.531Z,80.82
2023-01-13T20:27:32.453Z,80.79
2023-01-13T20:29:59.366Z,80.78
2023-01-13T20:32:26.222Z,80.87
2023-01-13T20:34:53.183Z,79.60
2023-01-13T20:37:20.034Z,79.55
2023-01-13T20:39:47.431Z,79.32
2023-01-13T20:42:29.627Z,79.26
2023-01-13T20:44:57.446Z,78.13
2023-01-13T20:47:24.710Z,79.00
2023-01-13T20:49:51.717Z,79.17
2023-01-13T20:52:18.684Z,78.11
2023-01-13T20:54:45.628Z,78.63
2023-01-13T20:57:12.838Z,79.42
2023-01-13T20:59:40.301Z,77.89
2023-01-13T21:02:10.639Z,78.09
2023-01-13T21:04:37.487Z,78.04
2023-01-13T21:07:04.571Z,78.07
2023-01-13T21:09:32.269Z,78.04
2023-01-13T21:12:18.361Z,77.24
2023-01-13T21:15:03.601Z,77.59
2023-01-13T21:17:49.076Z,78.66
2023-01-13T21:20:16.355Z,79.01
2023-01-13T21:22:47.585Z,80.16
2023-01-13T21:25:15.553Z,78.79
2023-01-13T21:27:44.132Z,80.15
2023-01-13T21:30:18.155Z,79.58
2023-01-13T21:32:45.711Z,81.52
2023-01-13T21:35:14.064Z,81.92
2023-01-13T21:37:42.442Z,81.34
2023-01-13T21:40:12.139Z,81.64
2023-01-13T21:42:57.619Z,81.18
2023-01-13T21:45:43.099Z,80.41
2023-01-13T21:48:10.188Z,80.49
2023-01-13T21:50:38.238Z,78.29
2023-01-13T21:53:06.060Z,77.82
2023-01-13T21:55:32.995Z,78.67
2023-01-13T21:58:13.539Z,77.93
2023-01-13T22:00:44.789Z,78.35
2023-01-13T22:03:13.072Z,77.80
2023-01-13T22:05:40.386Z,76.71
2023-01-13T22:08:07.954Z,77.50
2023-01-13T22:10:35.109Z,78.09
2023-01-13T22:13:23.669Z,78.51
2023-01-13T22:15:50.472Z,77.07
2023-01-13T22:18:18.366Z,76.02
2023-01-13T22:20:46.148Z,77.11
2023-01-13T22:23:12.946Z,76.19
2023-01-13T22:25:39.795Z,76.71
2023-01-13T22:28:09.086Z,75.78
2023-01-13T22:30:36.032Z,77.00
2023-01-13T22:33:03.103Z,76.01
2023-01-13T22:35:30.036Z,76.49
2023-01-13T22:37:57.178Z,75.28
2023-01-13T22:40:23.909Z,76.39
2023-01-13T22:42:50.728Z,76.41
2023-01-13T22:45:17.612Z,76.03
2023-01-13T22:47:44.512Z,75.95
2023-01-13T22:50:12.704Z,75.44
2023-01-13T22:52:39.912Z,76.02
2023-01-13T22:55:07.207Z,75.62
2023-01-13T22:57:36.785Z,75.46
2023-01-13T23:00:15.030Z,75.24
2023-01-13T23:02:42.166Z,74.87
2023-01-13T23:05:09.334Z,76.39
2023-01-13T23:07:36.325Z,76.48
2023-01-13T23:10:04.458Z,75.87
2023-01-13T23:12:31.376Z,76.34
2023-01-13T23:14:58.124Z,76.31
2023-01-13T23:17:25.183Z,76.45
2023-01-13T23:19:51.937Z,75.93
2023-01-13T23:22:18.876Z,75.67
2023-01-13T23:24:45.912Z,75.45
2023-01-13T23:27:12.941Z,75.77
2023-01-13T23:29:39.721Z,74.94
2023-01-13T23:32:06.575Z,76.16
2023-01-13T23:34:33.341Z,74.47
2023-01-13T23:37:00.228Z,74.75
2023-01-13T23:39:27.064Z,74.48
2023-01-13T23:41:54.590Z,75.46
2023-01-13T23:44:21.348Z,74.91
2023-01-13T23:46:48.339Z,75.54
2023-01-13T23:49:15.234Z,75.90
2023-01-13T23:51:42.094Z,75.78
2023-01-13T23:54:08.791Z,75.34
2023-01-13T23:56:39.353Z,75.53
2023-01-13T23:59:06.663Z,76.18
